sensor_id;sensor_type;location;lat;lon;timestamp;temperature;humidity
14016;DHT22;7083;48.854;9.158;2023-07-29T00:00:39;15.90;99.90
14016;DHT22;7083;48.854;9.158;2023-07-29T00:03:06;15.90;99.90
14016;DHT22;7083;48.854;9.158;2023-07-29T00:05:33;15.90;99.90
14016;DHT22;7083;48.854;9.158;2023-07-29T00:08:00;16.00;99.90
14016;DHT22;7083;48.854;9.158;2023-07-29T00:10:27;16.00;99.90
14016;DHT22;7083;48.854;9.158;2023-07-29T00:12:55;16.00;99.90
14016;DHT22;7083;48.854;9.158;2023-07-29T00:15:21;16.10;99.90
14016;DHT22;7083;48.854;9.158;2023-07-29T00:17:48;16.10;99.90
14016;DHT22;7083;48.854;9.158;2023-07-29T00:20:15;16.10;99.90
14016;DHT22;7083;48.854;9.158;2023-07-29T00:22:41;16.10;99.90
14016;DHT22;7083;48.854;9.158;2023-07-29T00:25:08;16.10;99.90
14016;DHT22;7083;48.854;9.158;2023-07-29T00:27:35;16.10;99.90
14016;DHT22;7083;48.854;9.158;2023-07-29T00:30:04;16.10;99.90
14016;DHT22;7083;48.854;9.158;2023-07-29T00:32:31;16.10;99.90
14016;DHT22;7083;48.854;9.158;2023-07-29T00:34:58;16.20;99.90
14016;DHT22;7083;48.854;9.158;2023-07-29T00:37:26;16.20;99.90
14016;DHT22;7083;48.854;9.158;2023-07-29T00:39:53;16.20;99.90
14016;DHT22;7083;48.854;9.158;2023-07-29T00:42:20;16.20;99.90
14016;DHT22;7083;48.854;9.158;2023-07-29T00:44:46;16.30;99.90
14016;DHT22;7083;48.854;9.158;2023-07-29T00:47:15;16.30;99.90
14016;DHT22;7083;48.854;9.158;2023-07-29T00:49:42;16.30;99.90
14016;DHT22;7083;48.854;9.158;2023-07-29T00:52:10;16.30;99.90
14016;DHT22;7083;48.854;9.158;2023-07-29T00:54:37;16.30;99.90
14016;DHT22;7083;48.854;9.158;2023-07-29T00:57:05;16.30;99.90
14016;DHT22;7083;48.854;9.158;2023-07-29T00:59:32;16.30;99.90
14016;DHT22;7083;48.854;9.158;2023-07-29T01:01:59;16.30;99.90
14016;DHT22;7083;48.854;9.158;2023-07-29T01:04:27;16.40;99.90
14016;DHT22;7083;48.854;9.158;2023-07-29T01:07:09;16.40;99.90
14016;DHT22;7083;48.854;9.158;2023-07-29T01:09:46;16.40;99.90
14016;DHT22;7083;48.854;9.158;2023-07-29T01:12:20;16.40;99.90
14016;DHT22;7083;48.854;9.158;2023-07-29T01:14:57;16.40;99.90
14016;DHT22;7083;48.854;9.158;2023-07-29T01:17:31;16.40;99.90
14016;DHT22;7083;48.854;9.158;2023-07-29T01:20:04;16.40;99.90
14016;DHT22;7083;48.854;9.158;2023-07-29T01:22:34;16.40;99.90
14016;DHT22;7083;48.854;9.158;2023-07-29T01:25:03;16.50;99.90
14016;DHT22;7083;48.854;9.158;2023-07-29T01:27:30;16.50;99.90
14016;DHT22;7083;48.854;9.158;2023-07-29T01:29:57;16.50;99.90
14016;DHT22;7083;48.854;9.158;2023-07-29T01:32:28;16.50;99.90
14016;DHT22;7083;48.854;9.158;2023-07-29T01:35:00;16.50;99.90
14016;DHT22;7083;48.854;9.158;2023-07-29T01:37:33;16.20;99.90
14016;DHT22;7083;48.854;9.158;2023-07-29T01:40:02;16.60;99.90
14016;DHT22;7083;48.854;9.158;2023-07-29T01:42:29;16.60;99.90
14016;DHT22;7083;48.854;9.158;2023-07-29T01:44:57;16.60;99.90
14016;DHT22;7083;48.854;9.158;2023-07-29T01:47:23;16.60;99.90
14016;DHT22;7083;48.854;9.158;2023-07-29T01:49:51;16.60;99.90
14016;DHT22;7083;48.854;9.158;2023-07-29T01:52:18;16.60;99.90
14016;DHT22;7083;48.854;9.158;2023-07-29T01:54:44;16.70;99.90
14016;DHT22;7083;48.854;9.158;2023-07-29T01:57:12;16.70;99.90
14016;DHT22;7083;48.854;9.158;2023-07-29T01:59:39;16.70;99.90
14016;DHT22;7083;48.854;9.158;2023-07-29T02:02:06;16.70;99.90
14016;DHT22;7083;48.854;9.158;2023-07-29T02:04:33;16.70;99.90
14016;DHT22;7083;48.854;9.158;2023-07-29T02:06:59;16.70;99.90
14016;DHT22;7083;48.854;9.158;2023-07-29T02:09:26;16.70;99.90
14016;DHT22;7083;48.854;9.158;2023-07-29T02:11:53;16.70;99.90
14016;DHT22;7083;48.854;9.158;2023-07-29T02:14:21;16.70;99.90
14016;DHT22;7083;48.854;9.158;2023-07-29T02:16:47;16.70;99.90
14016;DHT22;7083;48.854;9.158;2023-07-29T02:19:14;16.70;99.90
14016;DHT22;7083;48.854;9.158;2023-07-29T02:21:41;16.60;99.90
14016;DHT22;7083;48.854;9.158;2023-07-29T02:24:08;16.70;99.90
14016;DHT22;7083;48.854;9.158;2023-07-29T02:26:34;16.60;99.90
14016;DHT22;7083;48.854;9.158;2023-07-29T02:29:01;16.60;99.90
14016;DHT22;7083;48.854;9.158;2023-07-29T02:31:29;16.60;99.90
14016;DHT22;7083;48.854;9.158;2023-07-29T02:33:56;16.50;99.90
14016;DHT22;7083;48.854;9.158;2023-07-29T02:36:22;16.40;99.90
14016;DHT22;7083;48.854;9.158;2023-07-29T02:38:49;16.40;99.90
14016;DHT22;7083;48.854;9.158;2023-07-29T02:41:16;16.40;99.90
14016;DHT22;7083;48.854;9.158;2023-07-29T02:43:43;16.40;99.90
14016;DHT22;7083;48.854;9.158;2023-07-29T02:46:09;16.40;99.90
14016;DHT22;7083;48.854;9.158;2023-07-29T02:48:37;16.40;99.90
14016;DHT22;7083;48.854;9.158;2023-07-29T02:51:04;16.40;99.90
14016;DHT22;7083;48.854;9.158;2023-07-29T02:53:31;16.40;99.90
14016;DHT22;7083;48.854;9.158;2023-07-29T02:55:57;16.40;99.90
14016;DHT22;7083;48.854;9.158;2023-07-29T02:58:24;16.40;99.90
14016;DHT22;7083;48.854;9.158;2023-07-29T03:00:51;16.40;99.90
14016;DHT22;7083;48.854;9.158;2023-07-29T03:03:18;16.40;99.90
14016;DHT22;7083;48.854;9.158;2023-07-29T03:05:46;16.40;99.90
14016;DHT22;7083;48.854;9.158;2023-07-29T03:08:13;16.40;99.90
14016;DHT22;7083;48.854;9.158;2023-07-29T03:10:40;16.30;99.90
14016;DHT22;7083;48.854;9.158;2023-07-29T03:13:07;16.30;99.90
14016;DHT22;7083;48.854;9.158;2023-07-29T03:15:34;16.30;99.90
14016;DHT22;7083;48.854;9.158;2023-07-29T03:18:00;16.20;99.90
14016;DHT22;7083;48.854;9.158;2023-07-29T03:20:27;16.20;99.90
14016;DHT22;7083;48.854;9.158;2023-07-29T03:22:55;16.20;99.90
14016;DHT22;7083;48.854;9.158;2023-07-29T03:25:22;16.20;99.90
14016;DHT22;7083;48.854;9.158;2023-07-29T03:27:48;16.20;99.90
14016;DHT22;7083;48.854;9.158;2023-07-29T03:30:19;16.20;99.90
14016;DHT22;7083;48.854;9.158;2023-07-29T03:32:46;16.20;99.90
14016;DHT22;7083;48.854;9.158;2023-07-29T03:35:13;16.20;99.90
14016;DHT22;7083;48.854;9.158;2023-07-29T03:37:40;16.20;99.90
14016;DHT22;7083;48.854;9.158;2023-07-29T03:40:09;16.30;99.90
14016;DHT22;7083;48.854;9.158;2023-07-29T03:42:36;16.30;99.90
14016;DHT22;7083;48.854;9.158;2023-07-29T03:45:03;16.40;99.90
14016;DHT22;7083;48.854;9.158;2023-07-29T03:47:30;16.40;99.90
14016;DHT22;7083;48.854;9.158;2023-07-29T03:49:57;16.50;99.90
14016;DHT22;7083;48.854;9.158;2023-07-29T03:52:23;16.50;99.90
14016;DHT22;7083;48.854;9.158;2023-07-29T03:54:50;16.50;99.90
14016;DHT22;7083;48.854;9.158;2023-07-29T03:57:18;16.50;99.90
14016;DHT22;7083;48.854;9.158;2023-07-29T03:59:45;16.60;99.90
14016;DHT22;7083;48.854;9.158;2023-07-29T04:02:11;16.60;99.90
14016;DHT22;7083;48.854;9.158;2023-07-29T04:04:38;16.60;99.90
14016;DHT22;7083;48.854;9.158;2023-07-29T04:07:05;16.70;99.90
14016;DHT22;7083;48.854;9.158;2023-07-29T04:09:32;16.70;99.90
14016;DHT22;7083;48.854;9.158;2023-07-29T04:11:59;16.70;99.90
14016;DHT22;7083;48.854;9.158;2023-07-29T04:14:27;16.70;99.90
14016;DHT22;7083;48.854;9.158;2023-07-29T04:16:53;16.70;99.90
14016;DHT22;7083;48.854;9.158;2023-07-29T04:19:20;16.70;99.90
14016;DHT22;7083;48.854;9.158;2023-07-29T04:21:47;16.70;99.90
14016;DHT22;7083;48.854;9.158;2023-07-29T04:24:16;16.70;99.90
14016;DHT22;7083;48.854;9.158;2023-07-29T04:26:43;16.80;99.90
14016;DHT22;7083;48.854;9.158;2023-07-29T04:29:10;16.80;99.90
14016;DHT22;7083;48.854;9.158;2023-07-29T04:31:38;16.80;99.90
14016;DHT22;7083;48.854;9.158;2023-07-29T04:34:05;16.80;99.90
14016;DHT22;7083;48.854;9.158;2023-07-29T04:36:31;16.80;99.90
14016;DHT22;7083;48.854;9.158;2023-07-29T04:38:58;16.80;99.90
14016;DHT22;7083;48.854;9.158;2023-07-29T04:41:25;16.80;99.90
14016;DHT22;7083;48.854;9.158;2023-07-29T04:43:51;16.80;99.90
14016;DHT22;7083;48.854;9.158;2023-07-29T04:46:18;16.80;99.90
14016;DHT22;7083;48.854;9.158;2023-07-29T04:48:46;16.80;99.90
14016;DHT22;7083;48.854;9.158;2023-07-29T04:51:13;16.80;99.90
14016;DHT22;7083;48.854;9.158;2023-07-29T04:53:39;16.90;99.90
14016;DHT22;7083;48.854;9.158;2023-07-29T04:56:06;16.80;99.90
14016;DHT22;7083;48.854;9.158;2023-07-29T04:58:33;16.90;99.90
14016;DHT22;7083;48.854;9.158;2023-07-29T05:01:00;16.90;99.90
14016;DHT22;7083;48.854;9.158;2023-07-29T05:03:28;16.90;99.90
14016;DHT22;7083;48.854;9.158;2023-07-29T05:05:56;17.00;99.90
14016;DHT22;7083;48.854;9.158;2023-07-29T05:08:22;17.00;99.90
14016;DHT22;7083;48.854;9.158;2023-07-29T05:10:49;17.00;99.90
14016;DHT22;7083;48.854;9.158;2023-07-29T05:13:16;17.10;99.90
14016;DHT22;7083;48.854;9.158;2023-07-29T05:15:43;17.10;99.90
14016;DHT22;7083;48.854;9.158;2023-07-29T05:18:10;17.20;99.90
14016;DHT22;7083;48.854;9.158;2023-07-29T05:20:36;17.20;99.90
14016;DHT22;7083;48.854;9.158;2023-07-29T05:23:04;17.30;99.90
14016;DHT22;7083;48.854;9.158;2023-07-29T05:25:31;17.40;99.90
14016;DHT22;7083;48.854;9.158;2023-07-29T05:28:00;17.30;99.90
14016;DHT22;7083;48.854;9.158;2023-07-29T05:30:26;17.40;99.90
14016;DHT22;7083;48.854;9.158;2023-07-29T05:32:56;17.50;99.90
14016;DHT22;7083;48.854;9.158;2023-07-29T05:35:23;17.50;99.90
14016;DHT22;7083;48.854;9.158;2023-07-29T05:37:49;17.50;99.90
14016;DHT22;7083;48.854;9.158;2023-07-29T05:40:18;17.60;99.90
14016;DHT22;7083;48.854;9.158;2023-07-29T05:42:44;17.50;99.90
14016;DHT22;7083;48.854;9.158;2023-07-29T05:45:11;17.60;99.90
14016;DHT22;7083;48.854;9.158;2023-07-29T05:47:38;17.60;99.90
14016;DHT22;7083;48.854;9.158;2023-07-29T05:50:05;17.70;99.90
14016;DHT22;7083;48.854;9.158;2023-07-29T05:52:33;17.70;99.90
14016;DHT22;7083;48.854;9.158;2023-07-29T05:55:00;17.70;99.90
14016;DHT22;7083;48.854;9.158;2023-07-29T05:57:28;17.80;99.90
14016;DHT22;7083;48.854;9.158;2023-07-29T05:59:55;17.80;99.90
14016;DHT22;7083;48.854;9.158;2023-07-29T06:02:21;17.90;99.90
14016;DHT22;7083;48.854;9.158;2023-07-29T06:04:48;18.00;99.90
14016;DHT22;7083;48.854;9.158;2023-07-29T06:07:15;18.10;99.90
14016;DHT22;7083;48.854;9.158;2023-07-29T06:09:41;18.20;99.90
14016;DHT22;7083;48.854;9.158;2023-07-29T06:12:08;18.20;99.90
14016;DHT22;7083;48.854;9.158;2023-07-29T06:14:36;18.30;99.90
14016;DHT22;7083;48.854;9.158;2023-07-29T06:17:03;18.40;99.90
14016;DHT22;7083;48.854;9.158;2023-07-29T06:19:32;18.40;99.90
14016;DHT22;7083;48.854;9.158;2023-07-29T06:21:59;18.50;99.90
14016;DHT22;7083;48.854;9.158;2023-07-29T06:24:26;18.50;99.90
14016;DHT22;7083;48.854;9.158;2023-07-29T06:26:53;18.50;99.90
14016;DHT22;7083;48.854;9.158;2023-07-29T06:29:20;18.60;99.90
14016;DHT22;7083;48.854;9.158;2023-07-29T06:31:48;18.60;99.90
14016;DHT22;7083;48.854;9.158;2023-07-29T06:34:16;18.50;99.90
14016;DHT22;7083;48.854;9.158;2023-07-29T06:36:43;18.50;99.90
14016;DHT22;7083;48.854;9.158;2023-07-29T06:39:10;18.50;99.90
14016;DHT22;7083;48.854;9.158;2023-07-29T06:41:37;18.50;99.90
14016;DHT22;7083;48.854;9.158;2023-07-29T06:44:04;18.50;99.90
14016;DHT22;7083;48.854;9.158;2023-07-29T06:46:31;18.40;99.90
14016;DHT22;7083;48.854;9.158;2023-07-29T06:48:59;18.40;99.90
14016;DHT22;7083;48.854;9.158;2023-07-29T06:51:26;18.40;99.90
14016;DHT22;7083;48.854;9.158;2023-07-29T06:53:54;18.50;99.90
14016;DHT22;7083;48.854;9.158;2023-07-29T06:56:21;18.50;99.90
14016;DHT22;7083;48.854;9.158;2023-07-29T06:58:48;18.40;99.90
14016;DHT22;7083;48.854;9.158;2023-07-29T07:01:14;18.50;99.90
14016;DHT22;7083;48.854;9.158;2023-07-29T07:03:41;18.50;99.90
14016;DHT22;7083;48.854;9.158;2023-07-29T07:06:09;18.60;99.90
14016;DHT22;7083;48.854;9.158;2023-07-29T07:08:36;18.60;99.90
14016;DHT22;7083;48.854;9.158;2023-07-29T07:11:02;18.60;99.90
14016;DHT22;7083;48.854;9.158;2023-07-29T07:13:29;18.50;99.90
14016;DHT22;7083;48.854;9.158;2023-07-29T07:15:56;18.60;99.90
14016;DHT22;7083;48.854;9.158;2023-07-29T07:18:23;18.60;99.90
14016;DHT22;7083;48.854;9.158;2023-07-29T07:20:50;18.60;99.90
14016;DHT22;7083;48.854;9.158;2023-07-29T07:23:18;18.50;99.90
14016;DHT22;7083;48.854;9.158;2023-07-29T07:25:45;18.50;99.90
14016;DHT22;7083;48.854;9.158;2023-07-29T07:28:12;18.50;99.90
14016;DHT22;7083;48.854;9.158;2023-07-29T07:30:39;18.50;99.90
14016;DHT22;7083;48.854;9.158;2023-07-29T07:33:06;18.60;99.90
14016;DHT22;7083;48.854;9.158;2023-07-29T07:35:33;18.60;99.90
14016;DHT22;7083;48.854;9.158;2023-07-29T07:38:00;18.70;99.90
14016;DHT22;7083;48.854;9.158;2023-07-29T07:40:30;18.80;99.90
14016;DHT22;7083;48.854;9.158;2023-07-29T07:42:57;18.70;99.90
14016;DHT22;7083;48.854;9.158;2023-07-29T07:45:24;18.70;99.90
14016;DHT22;7083;48.854;9.158;2023-07-29T07:47:51;18.80;99.90
14016;DHT22;7083;48.854;9.158;2023-07-29T07:50:18;18.80;99.90
14016;DHT22;7083;48.854;9.158;2023-07-29T07:52:45;18.90;99.90
14016;DHT22;7083;48.854;9.158;2023-07-29T07:55:11;18.80;99.90
14016;DHT22;7083;48.854;9.158;2023-07-29T07:57:39;18.80;99.90
14016;DHT22;7083;48.854;9.158;2023-07-29T08:00:07;18.80;99.90
14016;DHT22;7083;48.854;9.158;2023-07-29T08:02:34;18.70;99.90
14016;DHT22;7083;48.854;9.158;2023-07-29T08:05:01;18.70;99.90
14016;DHT22;7083;48.854;9.158;2023-07-29T08:07:28;18.70;99.90
14016;DHT22;7083;48.854;9.158;2023-07-29T08:09:54;18.80;99.90
14016;DHT22;7083;48.854;9.158;2023-07-29T08:12:21;18.90;99.90
14016;DHT22;7083;48.854;9.158;2023-07-29T08:14:49;19.00;99.90
14016;DHT22;7083;48.854;9.158;2023-07-29T08:17:16;19.20;99.90
14016;DHT22;7083;48.854;9.158;2023-07-29T08:19:43;19.40;99.90
14016;DHT22;7083;48.854;9.158;2023-07-29T08:22:09;19.60;99.90
14016;DHT22;7083;48.854;9.158;2023-07-29T08:24:36;19.70;99.90
14016;DHT22;7083;48.854;9.158;2023-07-29T08:27:03;19.80;99.90
14016;DHT22;7083;48.854;9.158;2023-07-29T08:29:30;19.90;99.90
14016;DHT22;7083;48.854;9.158;2023-07-29T08:31:58;19.80;99.90
14016;DHT22;7083;48.854;9.158;2023-07-29T08:34:24;19.80;99.90
14016;DHT22;7083;48.854;9.158;2023-07-29T08:36:51;19.80;99.90
14016;DHT22;7083;48.854;9.158;2023-07-29T08:39:18;19.70;99.90
14016;DHT22;7083;48.854;9.158;2023-07-29T08:41:51;19.80;99.90
14016;DHT22;7083;48.854;9.158;2023-07-29T08:44:22;19.90;99.90
14016;DHT22;7083;48.854;9.158;2023-07-29T08:46:49;20.00;99.90
14016;DHT22;7083;48.854;9.158;2023-07-29T08:49:18;20.00;99.90
14016;DHT22;7083;48.854;9.158;2023-07-29T08:51:47;20.10;99.90
14016;DHT22;7083;48.854;9.158;2023-07-29T08:54:15;20.20;99.90
14016;DHT22;7083;48.854;9.158;2023-07-29T08:56:42;20.30;99.90
14016;DHT22;7083;48.854;9.158;2023-07-29T08:59:10;20.40;99.90
14016;DHT22;7083;48.854;9.158;2023-07-29T09:01:37;20.50;99.90
14016;DHT22;7083;48.854;9.158;2023-07-29T09:04:04;20.60;99.90
14016;DHT22;7083;48.854;9.158;2023-07-29T09:06:33;20.70;99.90
14016;DHT22;7083;48.854;9.158;2023-07-29T09:09:01;20.70;99.90
14016;DHT22;7083;48.854;9.158;2023-07-29T09:11:28;20.80;99.90
14016;DHT22;7083;48.854;9.158;2023-07-29T09:13:55;20.90;99.90
14016;DHT22;7083;48.854;9.158;2023-07-29T09:16:22;20.90;99.90
14016;DHT22;7083;48.854;9.158;2023-07-29T09:18:49;21.10;99.90
14016;DHT22;7083;48.854;9.158;2023-07-29T09:21:17;21.10;99.90
14016;DHT22;7083;48.854;9.158;2023-07-29T09:23:45;21.10;99.90
14016;DHT22;7083;48.854;9.158;2023-07-29T09:26:11;21.00;99.90
14016;DHT22;7083;48.854;9.158;2023-07-29T09:28:39;21.00;99.90
14016;DHT22;7083;48.854;9.158;2023-07-29T09:31:06;21.00;99.90
14016;DHT22;7083;48.854;9.158;2023-07-29T09:33:33;21.00;99.90
14016;DHT22;7083;48.854;9.158;2023-07-29T09:36:02;21.00;99.90
14016;DHT22;7083;48.854;9.158;2023-07-29T09:38:29;21.10;99.90
14016;DHT22;7083;48.854;9.158;2023-07-29T09:40:57;21.20;99.90
14016;DHT22;7083;48.854;9.158;2023-07-29T09:43:29;21.30;99.90
14016;DHT22;7083;48.854;9.158;2023-07-29T09:46:00;21.30;99.90
14016;DHT22;7083;48.854;9.158;2023-07-29T09:48:27;21.40;99.90
14016;DHT22;7083;48.854;9.158;2023-07-29T09:50:55;21.30;99.90
14016;DHT22;7083;48.854;9.158;2023-07-29T09:53:21;21.00;99.90
14016;DHT22;7083;48.854;9.158;2023-07-29T09:55:48;20.80;99.90
14016;DHT22;7083;48.854;9.158;2023-07-29T09:58:21;20.70;99.90
14016;DHT22;7083;48.854;9.158;2023-07-29T10:00:52;20.80;99.90
14016;DHT22;7083;48.854;9.158;2023-07-29T10:03:19;20.70;99.90
14016;DHT22;7083;48.854;9.158;2023-07-29T10:05:47;20.70;99.90
14016;DHT22;7083;48.854;9.158;2023-07-29T10:08:14;20.70;99.90
14016;DHT22;7083;48.854;9.158;2023-07-29T10:10:42;20.60;99.90
14016;DHT22;7083;48.854;9.158;2023-07-29T10:13:09;20.50;99.90
14016;DHT22;7083;48.854;9.158;2023-07-29T10:15:37;20.40;99.90
14016;DHT22;7083;48.854;9.158;2023-07-29T10:18:04;20.50;99.90
14016;DHT22;7083;48.854;9.158;2023-07-29T10:20:32;20.50;99.90
14016;DHT22;7083;48.854;9.158;2023-07-29T10:23:01;20.40;99.90
14016;DHT22;7083;48.854;9.158;2023-07-29T10:25:38;20.20;99.90
14016;DHT22;7083;48.854;9.158;2023-07-29T10:28:06;20.00;99.90
14016;DHT22;7083;48.854;9.158;2023-07-29T10:30:33;19.80;99.90
14016;DHT22;7083;48.854;9.158;2023-07-29T10:33:04;19.60;99.90
14016;DHT22;7083;48.854;9.158;2023-07-29T10:35:32;19.50;99.90
14016;DHT22;7083;48.854;9.158;2023-07-29T10:38:00;19.50;99.90
14016;DHT22;7083;48.854;9.158;2023-07-29T10:40:43;19.50;99.90
14016;DHT22;7083;48.854;9.158;2023-07-29T10:43:11;19.50;99.90
14016;DHT22;7083;48.854;9.158;2023-07-29T10:45:41;19.60;99.90
14016;DHT22;7083;48.854;9.158;2023-07-29T10:48:12;19.60;99.90
14016;DHT22;7083;48.854;9.158;2023-07-29T10:50:39;19.70;99.90
14016;DHT22;7083;48.854;9.158;2023-07-29T10:53:06;19.90;99.90
14016;DHT22;7083;48.854;9.158;2023-07-29T10:55:34;20.00;99.90
14016;DHT22;7083;48.854;9.158;2023-07-29T10:58:06;20.10;99.90
14016;DHT22;7083;48.854;9.158;2023-07-29T11:00:33;20.10;99.90
14016;DHT22;7083;48.854;9.158;2023-07-29T11:03:02;20.20;99.90
14016;DHT22;7083;48.854;9.158;2023-07-29T11:05:44;20.20;99.90
14016;DHT22;7083;48.854;9.158;2023-07-29T11:08:23;20.10;99.90
14016;DHT22;7083;48.854;9.158;2023-07-29T11:11:01;20.10;99.90
14016;DHT22;7083;48.854;9.158;2023-07-29T11:13:29;20.20;99.90
14016;DHT22;7083;48.854;9.158;2023-07-29T11:15:56;20.30;99.90
14016;DHT22;7083;48.854;9.158;2023-07-29T11:18:26;20.50;99.90
14016;DHT22;7083;48.854;9.158;2023-07-29T11:20:55;20.50;99.90
14016;DHT22;7083;48.854;9.158;2023-07-29T11:23:27;20.70;99.90
14016;DHT22;7083;48.854;9.158;2023-07-29T11:25:54;20.80;99.90
14016;DHT22;7083;48.854;9.158;2023-07-29T11:28:21;20.90;99.90
14016;DHT22;7083;48.854;9.158;2023-07-29T11:30:49;20.90;99.90
14016;DHT22;7083;48.854;9.158;2023-07-29T11:33:17;20.90;99.90
14016;DHT22;7083;48.854;9.158;2023-07-29T11:35:44;20.90;99.90
14016;DHT22;7083;48.854;9.158;2023-07-29T11:38:16;20.90;99.90
14016;DHT22;7083;48.854;9.158;2023-07-29T11:40:43;20.90;99.90
14016;DHT22;7083;48.854;9.158;2023-07-29T11:43:19;20.90;99.90
14016;DHT22;7083;48.854;9.158;2023-07-29T11:45:46;21.10;99.90
14016;DHT22;7083;48.854;9.158;2023-07-29T11:48:13;21.20;99.90
14016;DHT22;7083;48.854;9.158;2023-07-29T11:50:39;21.30;99.90
14016;DHT22;7083;48.854;9.158;2023-07-29T11:53:06;21.50;99.90
14016;DHT22;7083;48.854;9.158;2023-07-29T11:55:34;21.50;99.90
14016;DHT22;7083;48.854;9.158;2023-07-29T11:58:01;21.40;99.90
14016;DHT22;7083;48.854;9.158;2023-07-29T12:00:28;21.40;99.90
14016;DHT22;7083;48.854;9.158;2023-07-29T12:02:55;21.50;99.90
14016;DHT22;7083;48.854;9.158;2023-07-29T12:05:23;21.60;99.90
14016;DHT22;7083;48.854;9.158;2023-07-29T12:07:50;21.80;99.90
14016;DHT22;7083;48.854;9.158;2023-07-29T12:10:17;22.00;99.90
14016;DHT22;7083;48.854;9.158;2023-07-29T12:12:46;22.30;99.90
14016;DHT22;7083;48.854;9.158;2023-07-29T12:15:13;22.40;99.90
14016;DHT22;7083;48.854;9.158;2023-07-29T12:17:40;22.60;99.90
14016;DHT22;7083;48.854;9.158;2023-07-29T12:20:08;22.70;99.90
14016;DHT22;7083;48.854;9.158;2023-07-29T12:22:35;22.80;99.90
14016;DHT22;7083;48.854;9.158;2023-07-29T12:25:03;23.10;99.90
14016;DHT22;7083;48.854;9.158;2023-07-29T12:27:30;23.30;99.90
14016;DHT22;7083;48.854;9.158;2023-07-29T12:30:01;23.40;99.90
14016;DHT22;7083;48.854;9.158;2023-07-29T12:32:29;23.40;99.90
14016;DHT22;7083;48.854;9.158;2023-07-29T12:34:56;23.50;99.90
14016;DHT22;7083;48.854;9.158;2023-07-29T12:37:31;23.60;99.90
14016;DHT22;7083;48.854;9.158;2023-07-29T12:39:58;23.50;99.90
14016;DHT22;7083;48.854;9.158;2023-07-29T12:42:24;23.60;99.90
14016;DHT22;7083;48.854;9.158;2023-07-29T12:44:51;23.70;99.90
14016;DHT22;7083;48.854;9.158;2023-07-29T12:47:19;24.10;99.90
14016;DHT22;7083;48.854;9.158;2023-07-29T12:49:46;24.40;99.90
14016;DHT22;7083;48.854;9.158;2023-07-29T12:52:13;24.70;99.90
14016;DHT22;7083;48.854;9.158;2023-07-29T12:54:40;25.00;99.90
14016;DHT22;7083;48.854;9.158;2023-07-29T12:57:09;25.40;99.90
14016;DHT22;7083;48.854;9.158;2023-07-29T12:59:36;25.60;99.90
14016;DHT22;7083;48.854;9.158;2023-07-29T13:02:03;25.90;99.90
14016;DHT22;7083;48.854;9.158;2023-07-29T13:04:31;26.00;99.90
14016;DHT22;7083;48.854;9.158;2023-07-29T13:06:57;26.30;99.90
14016;DHT22;7083;48.854;9.158;2023-07-29T13:09:25;26.40;99.00
14016;DHT22;7083;48.854;9.158;2023-07-29T13:11:52;26.30;99.90
14016;DHT22;7083;48.854;9.158;2023-07-29T13:14:18;26.40;99.90
14016;DHT22;7083;48.854;9.158;2023-07-29T13:29:01;27.10;99.30
14016;DHT22;7083;48.854;9.158;2023-07-29T13:31:29;31.50;66.60
14016;DHT22;7083;48.854;9.158;2023-07-29T13:33:56;31.60;66.30
14016;DHT22;7083;48.854;9.158;2023-07-29T13:36:23;31.70;65.60
14016;DHT22;7083;48.854;9.158;2023-07-29T13:38:51;31.30;63.60
14016;DHT22;7083;48.854;9.158;2023-07-29T13:41:17;30.60;66.30
14016;DHT22;7083;48.854;9.158;2023-07-29T13:43:44;30.00;66.60
14016;DHT22;7083;48.854;9.158;2023-07-29T13:46:11;29.40;67.00
14016;DHT22;7083;48.854;9.158;2023-07-29T13:48:37;28.90;68.60
14016;DHT22;7083;48.854;9.158;2023-07-29T13:51:04;28.60;69.30
14016;DHT22;7083;48.854;9.158;2023-07-29T13:53:31;28.40;71.20
14016;DHT22;7083;48.854;9.158;2023-07-29T13:55:59;28.10;73.10
14016;DHT22;7083;48.854;9.158;2023-07-29T13:58:25;28.00;76.40
14016;DHT22;7083;48.854;9.158;2023-07-29T14:00:52;27.80;77.80
14016;DHT22;7083;48.854;9.158;2023-07-29T14:03:19;27.80;82.30
14016;DHT22;7083;48.854;9.158;2023-07-29T14:05:46;27.80;76.80
14016;DHT22;7083;48.854;9.158;2023-07-29T14:08:12;27.80;76.40
14016;DHT22;7083;48.854;9.158;2023-07-29T14:10:39;27.90;76.20
14016;DHT22;7083;48.854;9.158;2023-07-29T14:13:07;28.40;77.20
14016;DHT22;7083;48.854;9.158;2023-07-29T14:15:34;30.00;73.10
14016;DHT22;7083;48.854;9.158;2023-07-29T14:18:00;31.80;65.70
14016;DHT22;7083;48.854;9.158;2023-07-29T14:20:28;33.30;65.00
14016;DHT22;7083;48.854;9.158;2023-07-29T14:22:54;34.10;61.00
14016;DHT22;7083;48.854;9.158;2023-07-29T14:25:21;34.30;58.70
14016;DHT22;7083;48.854;9.158;2023-07-29T14:27:48;34.90;57.20
14016;DHT22;7083;48.854;9.158;2023-07-29T14:30:16;34.90;56.70
14016;DHT22;7083;48.854;9.158;2023-07-29T14:32:42;34.10;58.20
14016;DHT22;7083;48.854;9.158;2023-07-29T14:35:09;33.10;59.10
14016;DHT22;7083;48.854;9.158;2023-07-29T14:37:36;32.00;62.20
14016;DHT22;7083;48.854;9.158;2023-07-29T14:40:03;31.20;66.30
14016;DHT22;7083;48.854;9.158;2023-07-29T14:42:30;30.40;66.90
14016;DHT22;7083;48.854;9.158;2023-07-29T14:44:57;29.70;67.30
14016;DHT22;7083;48.854;9.158;2023-07-29T14:47:25;29.10;69.60
14016;DHT22;7083;48.854;9.158;2023-07-29T14:49:52;28.70;69.00
14016;DHT22;7083;48.854;9.158;2023-07-29T15:02:06;28.70;73.20
14016;DHT22;7083;48.854;9.158;2023-07-29T15:04:34;31.70;63.30
14016;DHT22;7083;48.854;9.158;2023-07-29T15:07:02;31.30;66.70
14016;DHT22;7083;48.854;9.158;2023-07-29T15:09:29;31.00;67.00
14016;DHT22;7083;48.854;9.158;2023-07-29T15:11:56;30.80;67.10
14016;DHT22;7083;48.854;9.158;2023-07-29T15:14:22;31.30;66.00
14016;DHT22;7083;48.854;9.158;2023-07-29T15:19:16;32.60;63.40
14016;DHT22;7083;48.854;9.158;2023-07-29T15:21:44;35.60;57.50
14016;DHT22;7083;48.854;9.158;2023-07-29T15:24:11;36.30;55.60
14016;DHT22;7083;48.854;9.158;2023-07-29T15:26:38;36.90;55.10
14016;DHT22;7083;48.854;9.158;2023-07-29T15:29:05;36.90;52.90
14016;DHT22;7083;48.854;9.158;2023-07-29T15:31:33;36.40;55.00
14016;DHT22;7083;48.854;9.158;2023-07-29T15:33:59;36.00;56.70
14016;DHT22;7083;48.854;9.158;2023-07-29T15:36:26;36.00;54.10
14016;DHT22;7083;48.854;9.158;2023-07-29T15:38:54;35.90;54.60
14016;DHT22;7083;48.854;9.158;2023-07-29T15:41:21;36.00;54.20
14016;DHT22;7083;48.854;9.158;2023-07-29T15:43:47;36.60;54.70
14016;DHT22;7083;48.854;9.158;2023-07-29T15:46:14;37.10;53.00
14016;DHT22;7083;48.854;9.158;2023-07-29T15:48:40;36.70;52.50
14016;DHT22;7083;48.854;9.158;2023-07-29T15:51:07;35.70;54.70
14016;DHT22;7083;48.854;9.158;2023-07-29T15:53:34;34.40;56.60
14016;DHT22;7083;48.854;9.158;2023-07-29T15:56:02;33.40;58.20
14016;DHT22;7083;48.854;9.158;2023-07-29T15:58:29;32.70;59.00
14016;DHT22;7083;48.854;9.158;2023-07-29T16:00:55;31.70;60.90
14016;DHT22;7083;48.854;9.158;2023-07-29T16:03:22;30.70;66.10
14016;DHT22;7083;48.854;9.158;2023-07-29T16:05:49;30.10;67.50
14016;DHT22;7083;48.854;9.158;2023-07-29T16:08:15;29.90;71.40
14016;DHT22;7083;48.854;9.158;2023-07-29T16:10:42;30.30;67.40